Terminal Aerodrome Forecast
Issued by NWS

Current Version | Previous Version | Graphics & Text | Print | Product List | Glossary On
Versions: 1 2 3 4 5 6 7 8 9 10 11 12 13 14 15 16 17 18 19 20 21 22 23 24
810
FTUS41 KPBZ 272157 AAB
TAFMGW
TAF AMD
KMGW 272157Z 2722/2818 02003KT P6SM BKN025
     FM280000 VRB03KT P6SM BKN035
     FM280900 11006KT P6SM VCSH BKN015
     FM281200 11008KT P6SM -SHRA OVC010
     FM281700 16005KT 6SM -SHRA OVC015=

USA.gov is the U.S. government's official web portal to all federal, state and local government web resources and services.